Terminal Aerodrome Forecast
Issued by NWS

Home | Current Version | Previous Version | Text Only | Print | Product List | Glossary On
Versions: 1 2 3 4 5 6 7 8 9 10 11 12 13 14 15 16 17 18 19 20
000
FTUS43 KDLH 291121
TAFBRD
TAF
KBRD 291121Z 2912/3012 VRB02KT 5SM BR SKC
      TEMPO 2912/2913 6SM BR SKC
     FM291300 30005KT P6SM FEW025 FEW100
     FM291600 31010KT P6SM VCSH SCT040 SCT100
     FM291900 33012G20KT P6SM VCTS BKN050CB
     FM300300 36003KT P6SM FEW050=

USA.gov is the U.S. government's official web portal to all federal, state and local government web resources and services.